Time;durP1;ratioP1;P1;durP2;ratioP2;P2;SDS_P1;SDS_P2;PMS_P1;PMS_P2;Temp;Humidity;BMP_temperature;BMP_pressure;BME280_temperature;BME280_humidity;BME280_pressure;Samples;Min_cycle;Max_cycle;Signal;HPM_P1;HPM_P2
2021/03/04 00:00:34;;;;;;;14.63;8.93;;;;;;;0.03;74.16;101691.28;1727755;82;21022;-79
2021/03/04 00:03:04;;;;;;;11.78;7.50;;;;;;;0.01;74.24;101683.12;1759972;81;20951;-80
2021/03/04 00:05:33;;;;;;;12.75;8.25;;;;;;;0.02;74.32;101685.67;1728146;81;20915;-81
2021/03/04 00:08:03;;;;;;;15.90;9.35;;;;;;;0.02;74.40;101684.39;1749665;81;21203;-79
2021/03/04 00:10:32;;;;;;;13.80;9.55;;;;;;;0.02;74.51;101677.94;1725200;83;20962;-78
2021/03/04 00:13:00;;;;;;;15.75;9.88;;;;;;;0.06;74.60;101674.95;1738726;82;20952;-78
2021/03/04 00:15:31;;;;;;;15.32;8.70;;;;;;;0.05;74.74;101666.36;1725087;82;20997;-77
2021/03/04 00:17:58;;;;;;;15.08;9.23;;;;;;;0.06;74.79;101662.91;1738708;82;20959;-80
2021/03/04 00:20:29;;;;;;;10.58;8.63;;;;;;;0.06;74.86;101664.20;1725201;82;22695;-81
2021/03/04 00:22:57;;;;;;;15.28;9.30;;;;;;;0.08;74.81;101654.74;1738795;82;21023;-80
2021/03/04 00:25:29;;;;;;;12.23;8.88;;;;;;;0.06;74.90;101650.02;1725100;82;21029;-79
2021/03/04 00:27:57;;;;;;;15.40;9.20;;;;;;;0.05;74.89;101653.47;1738671;82;20964;-79
2021/03/04 00:30:25;;;;;;;16.00;11.40;;;;;;;0.06;74.94;101654.31;1725098;82;21184;-78
2021/03/04 00:32:54;;;;;;;20.48;12.35;;;;;;;0.04;75.02;101654.31;1738681;82;21370;-77
2021/03/04 00:35:23;;;;;;;19.62;11.97;;;;;;;0.04;75.09;101644.43;1738561;82;20971;-78
2021/03/04 00:37:51;;;;;;;21.40;12.82;;;;;;;0.03;75.09;101644.02;1738637;82;20956;-78
2021/03/04 00:40:20;;;;;;;21.90;13.55;;;;;;;0.04;75.13;101640.56;1738586;82;21599;-77
2021/03/04 00:42:48;;;;;;;26.90;14.35;;;;;;;0.04;75.17;101639.27;1746980;81;21542;-79
2021/03/04 00:45:18;;;;;;;25.57;14.28;;;;;;;0.03;75.19;101637.57;1746781;82;21623;-78
2021/03/04 00:47:48;;;;;;;20.72;13.08;;;;;;;0.01;75.35;101632.84;1743245;82;20966;-79
2021/03/04 00:50:18;;;;;;;16.50;12.30;;;;;;;0.00;75.33;101624.25;1746776;82;21022;-80
2021/03/04 00:52:46;;;;;;;16.42;10.72;;;;;;;-0.01;75.35;101617.36;1746798;81;21074;-77
2021/03/04 00:55:14;;;;;;;17.32;12.00;;;;;;;-0.01;75.34;101618.65;1747066;81;20943;-78
2021/03/04 00:57:42;;;;;;;24.63;11.93;;;;;;;-0.03;75.31;101624.23;1746962;82;21216;-77
2021/03/04 01:00:12;;;;;;;16.25;10.98;;;;;;;-0.04;75.37;101625.95;1746870;81;21022;-77
2021/03/04 01:02:40;;;;;;;17.70;10.85;;;;;;;-0.04;75.31;101623.37;1747007;81;21551;-79
2021/03/04 01:05:09;;;;;;;18.20;11.03;;;;;;;-0.08;75.45;101610.05;1747028;82;21014;-81
2021/03/04 01:07:37;;;;;;;20.97;12.43;;;;;;;-0.10;75.49;101607.05;1761327;80;21867;-80
2021/03/04 01:10:08;;;;;;;16.93;12.07;;;;;;;-0.12;75.40;101613.92;1780597;80;21815;-81
2021/03/04 01:12:36;;;;;;;17.82;11.83;;;;;;;-0.14;75.49;101616.93;1780580;80;21030;-80
2021/03/04 01:15:12;;;;;;;19.02;12.35;;;;;;;-0.15;75.58;101622.52;1781698;80;20943;-80
2021/03/04 01:17:40;;;;;;;14.85;10.65;;;;;;;-0.17;75.62;101617.79;1782556;80;20911;-81
2021/03/04 01:20:11;;;;;;;14.18;10.82;;;;;;;-0.22;75.70;101622.09;1821623;78;21033;-81
2021/03/04 01:22:40;;;;;;;17.65;10.98;;;;;;;-0.27;75.84;101622.09;1820378;78;21381;-81
2021/03/04 01:25:09;;;;;;;18.82;11.93;;;;;;;-0.29;76.07;101617.77;1749975;82;21006;-81
2021/03/04 01:27:37;;;;;;;19.98;11.63;;;;;;;-0.34;76.38;101623.36;1819470;78;21030;-80
2021/03/04 01:30:08;;;;;;;18.20;11.80;;;;;;;-0.33;76.53;101625.95;1749789;82;21506;-81
2021/03/04 01:32:37;;;;;;;13.95;10.13;;;;;;;-0.32;76.57;101624.22;1819499;78;21061;-81
2021/03/04 01:35:07;;;;;;;19.98;11.73;;;;;;;-0.36;76.64;101627.64;1819671;78;21329;-83
2021/03/04 01:37:36;;;;;;;18.62;11.33;;;;;;;-0.39;76.81;101626.37;1819265;78;20975;-83
2021/03/04 01:40:12;;;;;;;17.50;11.25;;;;;;;-0.39;76.91;101627.66;1819471;78;20930;-82
2021/03/04 01:42:40;;;;;;;20.72;13.50;;;;;;;-0.38;76.84;101626.78;1749755;81;21573;-82
2021/03/04 01:45:10;;;;;;;18.70;13.18;;;;;;;-0.38;76.75;101621.62;1819601;78;21427;-81
2021/03/04 01:47:41;;;;;;;19.77;13.38;;;;;;;-0.39;76.79;101621.22;1819428;78;22078;-82
2021/03/04 01:50:10;;;;;;;19.37;12.98;;;;;;;-0.39;76.81;101616.91;1749632;82;21022;-79
2021/03/04 01:52:38;;;;;;;18.70;13.80;;;;;;;-0.38;76.76;101623.77;1819476;78;21440;-83
2021/03/04 01:55:07;;;;;;;17.35;12.90;;;;;;;-0.36;76.58;101616.05;1749634;82;21026;-83
2021/03/04 01:57:36;;;;;;;19.00;14.28;;;;;;;-0.37;76.54;101622.08;1819457;78;20927;-83
2021/03/04 02:00:06;;;;;;;19.70;15.88;;;;;;;-0.37;76.54;101628.52;1697360;82;21390;-84
2021/03/04 02:02:36;;;;;;;23.07;15.58;;;;;;;-0.40;76.59;101624.62;1819642;78;21041;-84
2021/03/04 02:05:08;;;;;;;23.20;15.25;;;;;;;-0.40;76.55;101619.08;1820270;78;20930;-85
2021/03/04 02:08:12;;;;;;;23.60;15.43;;;;;;;-0.44;76.67;101618.20;1820328;78;21033;-83
2021/03/04 02:10:49;;;;;;;25.50;16.32;;;;;;;-0.45;76.72;101617.75;1753088;81;21383;-83
2021/03/04 02:13:39;;;;;;;27.05;16.35;;;;;;;-0.47;76.49;101616.03;1754642;81;21313;-82
2021/03/04 02:16:27;;;;;;;24.95;17.90;;;;;;;-0.52;76.70;101623.75;1752926;81;21026;-83
2021/03/04 02:18:59;;;;;;;24.40;17.60;;;;;;;-0.53;76.70;101627.20;1780745;79;21017;-84
2021/03/04 02:22:07;;;;;;;27.90;17.12;;;;;;;-0.55;76.66;101623.76;1729795;81;21022;-83
2021/03/04 02:25:06;;;;;;;29.87;19.48;;;;;;;-0.55;76.66;101617.32;1705008;81;21360;-81
2021/03/04 02:27:35;;;;;;;31.33;20.75;;;;;;;-0.53;76.76;101616.05;1784050;80;21370;-81
2021/03/04 02:30:09;;;;;;;33.18;22.10;;;;;;;-0.56;76.88;101599.27;1729200;81;20959;-80
2021/03/04 02:32:42;;;;;;;36.00;21.85;;;;;;;-0.56;76.91;101601.41;1753311;81;21050;-81
2021/03/04 02:35:23;;;;;;;39.85;23.02;;;;;;;-0.57;77.08;101593.70;1784393;80;21006;-80
2021/03/04 02:37:55;;;;;;;30.02;21.15;;;;;;;-0.60;77.24;101591.98;1758524;81;20982;-80
2021/03/04 02:40:25;;;;;;;32.20;21.05;;;;;;;-0.62;77.32;101591.12;1756483;81;21381;-81
2021/03/04 02:42:53;;;;;;;27.22;19.50;;;;;;;-0.61;77.47;101590.69;1787042;78;21018;-80
2021/03/04 02:45:24;;;;;;;30.15;20.52;;;;;;;-0.61;77.65;101585.09;1758053;78;21003;-80
2021/03/04 02:47:52;;;;;;;31.23;19.85;;;;;;;-0.61;77.55;101584.25;1756622;81;20983;-80
2021/03/04 02:50:21;;;;;;;33.83;18.82;;;;;;;-0.61;77.43;101575.23;1784604;80;20927;-80
2021/03/04 02:52:50;;;;;;;31.15;20.85;;;;;;;-0.62;77.47;101571.80;1754857;81;21388;-80
2021/03/04 02:55:18;;;;;;;29.98;20.27;;;;;;;-0.60;77.39;101565.34;1753227;81;21583;-80
2021/03/04 02:57:47;;;;;;;36.95;23.32;;;;;;;-0.58;77.39;101560.62;1784256;80;21602;-79
2021/03/04 03:00:20;;;;;;;28.83;19.10;;;;;;;-0.57;77.30;101554.63;1755163;81;20935;-80
2021/03/04 03:02:49;;;;;;;25.50;17.32;;;;;;;-0.57;77.31;101553.77;1754144;81;21009;-79
2021/03/04 03:05:19;;;;;;;29.25;19.07;;;;;;;-0.57;77.49;101546.05;1787115;80;21434;-81
2021/03/04 03:07:49;;;;;;;31.77;17.62;;;;;;;-0.61;77.72;101551.61;1755637;81;21062;-81
2021/03/04 03:10:18;;;;;;;21.85;15.45;;;;;;;-0.61;77.77;101543.89;1751822;82;20979;-82
2021/03/04 03:12:47;;;;;;;25.12;17.67;;;;;;;-0.59;77.86;101545.19;1752759;82;20947;-80
2021/03/04 03:15:20;;;;;;;28.07;18.95;;;;;;;-0.60;78.07;101535.72;1751433;82;20959;-81
2021/03/04 03:17:48;;;;;;;31.82;19.37;;;;;;;-0.61;78.27;101541.75;1751306;82;21410;-81
2021/03/04 03:20:19;;;;;;;26.33;17.25;;;;;;;-0.59;78.33;101528.44;1751241;81;21093;-79
2021/03/04 03:22:48;;;;;;;24.70;16.27;;;;;;;-0.62;78.67;101519.00;1751841;81;21054;-80
2021/03/04 03:25:16;;;;;;;27.87;14.45;;;;;;;-0.62;78.79;101517.71;1752202;82;20908;-79
2021/03/04 03:27:45;;;;;;;22.45;13.78;;;;;;;-0.61;78.96;101524.56;1751708;81;20954;-76
2021/03/04 03:30:23;;;;;;;25.52;15.88;;;;;;;-0.60;79.09;101513.42;1751161;82;21317;-78
2021/03/04 03:33:00;;;;;;;26.07;16.23;;;;;;;-0.59;79.23;101515.56;1747598;82;20963;-77
2021/03/04 03:35:28;;;;;;;26.70;16.97;;;;;;;-0.55;79.11;101501.83;1750711;82;21014;-78
2021/03/04 03:37:59;;;;;;;21.55;13.90;;;;;;;-0.52;79.03;101499.23;1750872;82;21038;-77
2021/03/04 03:40:27;;;;;;;24.12;15.70;;;;;;;-0.53;79.13;101490.66;1750879;81;20989;-76
2021/03/04 03:42:57;;;;;;;21.15;13.95;;;;;;;-0.54;79.05;101478.63;1750919;82;21416;-78
2021/03/04 03:45:28;;;;;;;23.27;16.75;;;;;;;-0.52;79.03;101478.63;1750772;82;20931;-77
2021/03/04 03:47:56;;;;;;;28.52;17.27;;;;;;;-0.53;78.88;101481.64;1751048;82;21594;-77
2021/03/04 03:50:24;;;;;;;24.20;15.90;;;;;;;-0.54;78.87;101472.18;1750923;82;20915;-77
2021/03/04 03:52:53;;;;;;;25.27;16.30;;;;;;;-0.57;78.88;101468.77;1751048;82;20966;-77
2021/03/04 03:55:21;;;;;;;24.77;15.60;;;;;;;-0.59;78.87;101470.05;1750811;82;21826;-76
2021/03/04 03:57:49;;;;;;;23.20;14.78;;;;;;;-0.58;78.89;101468.33;1750853;82;20975;-77
2021/03/04 04:00:24;;;;;;;22.95;15.00;;;;;;;-0.61;79.05;101461.89;1750778;82;21006;-78
2021/03/04 04:02:49;;;;;;;22.17;16.32;;;;;;;-0.65;79.16;101455.88;1750613;82;21002;-78
2021/03/04 04:05:18;;;;;;;27.35;16.00;;;;;;;-0.60;79.12;101460.62;1750840;81;20966;-79
2021/03/04 04:07:46;;;;;;;23.92;15.48;;;;;;;-0.59;79.06;101459.74;1750663;81;22235;-79
2021/03/04 04:10:14;;;;;;;22.13;15.25;;;;;;;-0.58;79.06;101454.16;1750904;82;21618;-81
2021/03/04 04:12:42;;;;;;;21.95;15.53;;;;;;;-0.59;79.07;101454.59;1750888;82;20955;-81
2021/03/04 04:15:12;;;;;;;25.15;17.42;;;;;;;-0.57;79.04;101453.31;1750803;81;21559;-79
2021/03/04 04:17:40;;;;;;;25.85;16.65;;;;;;;-0.58;78.97;101454.16;1750944;81;20916;-80
2021/03/04 04:20:10;;;;;;;27.25;15.80;;;;;;;-0.59;78.97;101453.74;1750852;81;21210;-79
2021/03/04 04:22:37;;;;;;;32.83;18.35;;;;;;;-0.62;79.01;101448.16;1750860;82;21033;-81
2021/03/04 04:25:06;;;;;;;29.30;17.85;;;;;;;-0.65;79.00;101437.41;1750833;82;20975;-79
2021/03/04 04:27:34;;;;;;;30.12;20.17;;;;;;;-0.65;79.09;101437.41;1750884;82;20915;-77
2021/03/04 04:30:02;;;;;;;35.75;21.30;;;;;;;-0.65;79.20;101424.97;1751004;82;20948;-79
2021/03/04 04:32:30;;;;;;;36.98;20.97;;;;;;;-0.64;79.46;101421.55;1751298;81;21775;-78
2021/03/04 04:34:59;;;;;;;37.40;22.32;;;;;;;-0.65;79.56;101420.67;1751589;82;20974;-80
2021/03/04 04:37:27;;;;;;;34.15;21.65;;;;;;;-0.58;79.54;101421.95;1751655;82;21077;-80
2021/03/04 04:39:55;;;;;;;39.40;22.62;;;;;;;-0.54;79.55;101424.96;1751117;82;20958;-76
2021/03/04 04:42:23;;;;;;;40.45;23.80;;;;;;;-0.53;79.56;101408.66;1751118;82;20943;-79
2021/03/04 04:44:51;;;;;;;32.28;21.85;;;;;;;-0.51;79.50;101406.91;1750978;81;21413;-79
2021/03/04 04:47:19;;;;;;;40.15;23.77;;;;;;;-0.49;79.36;101407.36;1750909;82;21018;-77
2021/03/04 04:49:48;;;;;;;29.77;21.30;;;;;;;-0.47;79.18;101404.36;1750981;82;21006;-78
2021/03/04 04:52:16;;;;;;;43.38;27.25;;;;;;;-0.46;79.17;101407.78;1751013;81;21413;-79
2021/03/04 04:54:45;;;;;;;42.60;25.75;;;;;;;-0.47;79.16;101394.05;1751012;81;21476;-78
2021/03/04 04:57:15;;;;;;;40.15;26.33;;;;;;;-0.45;79.11;101393.59;1722803;82;22689;-78
2021/03/04 04:59:47;;;;;;;39.45;26.52;;;;;;;-0.40;79.05;101394.02;1750996;82;21373;-79
2021/03/04 05:02:15;;;;;;;37.88;27.52;;;;;;;-0.39;79.16;101392.73;1750911;81;20911;-80
2021/03/04 05:04:44;;;;;;;41.63;25.55;;;;;;;-0.39;79.18;101381.14;1751524;82;21043;-78
2021/03/04 05:07:12;;;;;;;28.57;19.32;;;;;;;-0.32;79.08;101384.55;1750948;82;20947;-79
2021/03/04 05:09:40;;;;;;;28.55;17.07;;;;;;;-0.28;78.95;101385.83;1750167;82;21390;-77
2021/03/04 05:12:10;;;;;;;25.72;17.30;;;;;;;-0.27;78.88;101381.12;1750829;81;20987;-76
2021/03/04 05:14:40;;;;;;;21.73;14.95;;;;;;;-0.23;78.81;101387.10;1751260;81;21420;-85
2021/03/04 05:17:09;;;;;;;22.37;15.32;;;;;;;-0.15;78.55;101386.66;1751956;82;21026;-86
2021/03/04 05:19:39;;;;;;;22.77;15.20;;;;;;;0.06;78.55;101379.70;1751601;82;21011;-86
2021/03/04 05:22:10;;;;;;;21.42;14.33;;;;;;;0.52;77.87;101380.75;1751913;82;21269;-89
2021/03/04 05:24:38;;;;;;;16.50;11.95;;;;;;;0.92;76.18;101377.45;1751555;82;21026;-87
2021/03/04 05:27:08;;;;;;;17.77;13.90;;;;;;;1.22;75.20;101368.59;1751353;82;21074;-90
2021/03/04 05:29:36;;;;;;;15.95;12.65;;;;;;;1.46;74.47;101369.20;1751418;82;21034;-85
2021/03/04 05:32:06;;;;;;;13.48;10.80;;;;;;;1.66;73.10;101367.25;1751307;82;21440;-83
2021/03/04 05:34:36;;;;;;;16.85;12.10;;;;;;;1.95;72.35;101356.16;1751093;82;21932;-84
2021/03/04 05:37:05;;;;;;;20.50;12.85;;;;;;;2.23;71.43;101367.86;1751013;81;20923;-89
2021/03/04 05:39:33;;;;;;;17.25;11.33;;;;;;;2.43;70.46;101367.59;1751205;82;21527;-85
2021/03/04 05:42:06;;;;;;;14.20;10.48;;;;;;;2.58;69.84;101366.52;1751048;81;20935;-82
2021/03/04 05:44:36;;;;;;;13.95;11.38;;;;;;;2.86;69.01;101371.26;1751116;82;21026;-86
2021/03/04 05:47:04;;;;;;;17.30;11.73;;;;;;;3.13;68.41;101359.58;1751009;82;21494;-83
2021/03/04 05:49:46;;;;;;;14.50;11.00;;;;;;;3.51;67.44;101355.44;1750820;82;20987;-84
2021/03/04 05:52:17;;;;;;;14.03;10.28;;;;;;;3.84;66.29;101355.22;1751161;81;20912;-83
2021/03/04 05:54:46;;;;;;;15.95;11.05;;;;;;;4.02;65.39;101351.84;1751238;82;20935;-81
2021/03/04 05:57:14;;;;;;;11.65;9.73;;;;;;;4.22;65.02;101344.47;1751087;82;21599;-80
2021/03/04 05:59:51;;;;;;;13.10;9.20;;;;;;;4.39;64.39;101346.70;1750919;82;22402;-81
2021/03/04 06:02:21;;;;;;;14.13;10.45;;;;;;;4.58;63.81;101343.25;1749901;81;20966;-78
2021/03/04 06:04:51;;;;;;;13.13;9.90;;;;;;;4.78;63.20;101334.53;1819350;78;20994;-80
2021/03/04 06:07:21;;;;;;;16.37;10.00;;;;;;;5.03;62.59;101335.22;1749587;81;21029;-79
2021/03/04 06:09:49;;;;;;;12.18;10.18;;;;;;;5.19;61.83;101335.22;1819536;78;21037;-80
2021/03/04 06:12:17;;;;;;;14.03;10.82;;;;;;;5.32;61.53;101323.20;1819468;78;22141;-81
2021/03/04 06:14:45;;;;;;;13.60;10.85;;;;;;;5.35;61.34;101329.16;1749726;81;20955;-85
2021/03/04 06:17:18;;;;;;;12.25;10.90;;;;;;;5.44;61.07;101317.66;1820183;78;20934;-87
2021/03/04 06:19:55;;;;;;;15.40;10.50;;;;;;;5.49;60.97;101321.01;1822187;78;21057;-89
2021/03/04 06:22:27;;;;;;;12.33;9.65;;;;;;;5.52;60.92;101314.41;1751934;81;21731;-82
2021/03/04 06:24:57;;;;;;;12.82;9.90;;;;;;;5.60;60.77;101317.66;1821131;78;21328;-86
2021/03/04 06:27:34;;;;;;;11.40;9.98;;;;;;;5.72;60.55;101308.64;1819404;78;21384;-83
2021/03/04 06:30:10;;;;;;;14.07;10.78;;;;;;;5.87;60.39;101298.24;1789627;78;20923;-83
2021/03/04 06:32:39;;;;;;;11.10;9.13;;;;;;;6.19;59.82;101299.05;1818618;78;21046;-81
2021/03/04 06:35:13;;;;;;;10.23;9.03;;;;;;;6.52;59.20;101293.68;1819447;78;21460;-83
2021/03/04 06:37:44;;;;;;;10.48;8.43;;;;;;;6.88;58.14;101284.23;1749863;81;22091;-83
2021/03/04 06:40:25;;;;;;;11.93;9.65;;;;;;;7.17;57.41;101281.47;1820450;78;21073;-83
2021/03/04 06:42:53;;;;;;;10.55;9.05;;;;;;;7.58;56.77;101277.84;1814317;78;20947;-84
2021/03/04 06:45:29;;;;;;;11.22;10.13;;;;;;;8.09;55.35;101274.59;1819337;78;20923;-82
2021/03/04 06:48:12;;;;;;;12.55;9.23;;;;;;;8.44;54.05;101269.30;1819437;78;20984;-86
2021/03/04 06:50:43;;;;;;;12.18;10.82;;;;;;;8.65;53.47;101266.73;1749471;82;21204;-80
2021/03/04 06:53:18;;;;;;;10.40;9.40;;;;;;;8.87;52.87;101257.50;1819750;78;20986;-82
2021/03/04 06:56:04;;;;;;;9.95;8.93;;;;;;;8.81;52.76;101262.55;1750353;81;21076;-79
2021/03/04 06:58:36;;;;;;;10.38;8.80;;;;;;;8.47;52.96;101253.51;1820235;78;28916;-79
2021/03/04 07:01:16;;;;;;;9.88;8.50;;;;;;;7.87;54.03;101250.63;1821198;78;20927;-79
2021/03/04 07:03:47;;;;;;;10.65;9.55;;;;;;;7.31;55.31;101243.60;1751578;81;21372;-78
2021/03/04 07:06:19;;;;;;;12.85;10.15;;;;;;;6.77;56.77;101234.61;1820340;78;21037;-78
2021/03/04 07:08:50;;;;;;;13.30;10.75;;;;;;;6.35;58.01;101224.72;1747949;81;21034;-81
2021/03/04 07:11:20;;;;;;;10.43;8.68;;;;;;;6.04;59.23;101229.22;1701345;84;20978;-79
2021/03/04 07:13:49;;;;;;;10.68;8.78;;;;;;;5.80;60.21;101224.70;1733863;82;21427;-78
2021/03/04 07:16:20;;;;;;;10.48;9.05;;;;;;;5.62;60.68;101223.92;1733629;82;21089;-77
2021/03/04 07:18:56;;;;;;;9.65;8.60;;;;;;;5.51;61.24;101219.48;1733557;82;21006;-76
2021/03/04 07:21:28;;;;;;;11.63;8.90;;;;;;;5.40;61.55;101209.39;1733673;82;20963;-77
2021/03/04 07:23:56;;;;;;;9.85;7.92;;;;;;;5.25;62.05;101208.11;1731903;82;20928;-78
2021/03/04 07:26:24;;;;;;;11.40;9.03;;;;;;;5.12;62.67;101206.29;1733660;82;21026;-77
2021/03/04 07:28:55;;;;;;;9.30;8.40;;;;;;;5.25;63.02;101199.00;1733551;82;21204;-76
2021/03/04 07:31:22;;;;;;;12.40;8.20;;;;;;;5.75;62.26;101189.28;1733511;82;20954;-75
2021/03/04 07:33:51;;;;;;;12.40;8.90;;;;;;;6.42;60.67;101193.68;1733612;82;20954;-75
2021/03/04 07:36:21;;;;;;;11.68;9.28;;;;;;;7.04;59.07;101175.42;1733582;82;21034;-76
2021/03/04 07:39:00;;;;;;;10.38;9.28;;;;;;;7.64;57.49;101174.48;1733618;82;21006;-75
2021/03/04 07:41:43;;;;;;;13.13;8.93;;;;;;;8.18;56.35;101163.64;1733594;82;21218;-75
2021/03/04 07:44:30;;;;;;;10.85;8.70;;;;;;;8.77;54.41;101161.61;1733556;82;21045;-75
2021/03/04 07:47:12;;;;;;;10.48;7.95;;;;;;;9.44;52.62;101150.31;1845952;76;22748;-76
2021/03/04 07:49:43;;;;;;;9.98;8.15;;;;;;;9.73;51.44;101155.02;1817972;77;20986;-75
2021/03/04 07:52:13;;;;;;;8.63;7.75;;;;;;;9.90;50.62;101148.13;1818087;78;21228;-74
2021/03/04 07:54:43;;;;;;;9.95;8.33;;;;;;;10.05;50.26;101143.45;1818070;79;21455;-76
2021/03/04 07:57:12;;;;;;;9.93;7.72;;;;;;;10.33;49.85;101140.78;1817932;79;20978;-75
2021/03/04 08:00:02;;;;;;;10.15;7.87;;;;;;;10.68;48.89;101135.05;1817866;77;20990;-75
2021/03/04 08:02:35;;;;;;;11.05;7.85;;;;;;;11.03;48.08;101132.34;1816527;79;20986;-75
2021/03/04 08:05:13;;;;;;;9.18;7.90;;;;;;;11.39;47.03;101136.52;1817902;79;21179;-76
2021/03/04 08:07:47;;;;;;;10.80;7.90;;;;;;;11.62;46.60;101126.03;1817909;77;20996;-74
2021/03/04 08:10:24;;;;;;;9.63;7.17;;;;;;;11.78;46.34;101122.06;1817914;77;21345;-76
2021/03/04 08:12:57;;;;;;;7.75;6.72;;;;;;;12.05;45.69;101121.00;1817984;79;20978;-73
2021/03/04 08:15:37;;;;;;;9.18;7.17;;;;;;;12.25;44.82;101106.69;1817948;77;20871;-77
2021/03/04 08:18:19;;;;;;;8.18;7.30;;;;;;;12.45;44.45;101104.18;1817980;79;21345;-73
2021/03/04 08:20:50;;;;;;;8.13;7.00;;;;;;;12.61;43.94;101098.36;1818086;78;21006;-73
2021/03/04 08:24:00;;;;;;;9.50;7.58;;;;;;;12.95;43.00;101083.11;1777154;79;22637;-72
2021/03/04 08:26:29;;;;;;;9.23;7.40;;;;;;;13.09;42.65;101086.66;1744954;81;20895;-74
2021/03/04 08:29:10;;;;;;;11.12;8.60;;;;;;;13.16;42.27;101083.56;1749667;82;21266;-73
2021/03/04 08:31:44;;;;;;;10.68;8.40;;;;;;;13.23;42.30;101087.48;1749642;80;20931;-74
2021/03/04 08:34:12;;;;;;;14.40;9.23;;;;;;;13.31;41.94;101072.53;1749569;82;21038;-74
2021/03/04 08:36:43;;;;;;;12.82;9.35;;;;;;;13.28;42.15;101068.79;1749598;82;21050;-73
2021/03/04 08:39:11;;;;;;;12.78;9.00;;;;;;;13.44;42.23;101058.94;1749651;82;20935;-72
2021/03/04 08:41:40;;;;;;;10.10;8.83;;;;;;;13.61;41.54;101055.70;1749593;82;21299;-72
2021/03/04 08:44:18;;;;;;;9.88;8.15;;;;;;;13.75;41.25;101062.20;1749594;81;20982;-72
2021/03/04 08:46:48;;;;;;;11.97;8.53;;;;;;;14.00;40.96;101050.85;1749599;80;21424;-75
2021/03/04 08:49:21;;;;;;;22.17;12.55;;;;;;;14.00;40.96;101050.85;1749701;80;21113;-73
2021/03/04 08:51:49;;;;;;;16.25;10.23;;;;;;;14.08;40.73;101042.44;1749643;82;20927;-73
2021/03/04 08:54:25;;;;;;;15.10;11.48;;;;;;;14.28;40.47;101041.91;1749615;82;21651;-74
2021/03/04 08:57:03;;;;;;;13.30;8.85;;;;;;;14.53;39.76;101045.97;1749577;80;21007;-73
2021/03/04 08:59:30;;;;;;;13.18;9.40;;;;;;;14.76;39.20;101043.89;1749496;82;20935;-74
2021/03/04 09:01:59;;;;;;;12.55;9.18;;;;;;;15.00;38.92;101038.66;1749548;81;21003;-72
2021/03/04 09:04:28;;;;;;;11.80;9.08;;;;;;;15.25;38.09;101035.11;1749690;82;20943;-75
2021/03/04 09:06:56;;;;;;;11.83;9.05;;;;;;;15.34;37.93;101030.47;1749532;80;21456;-74
2021/03/04 09:09:30;;;;;;;11.53;9.48;;;;;;;15.32;37.60;101035.50;1749621;80;20931;-74
2021/03/04 09:11:58;;;;;;;13.38;9.80;;;;;;;15.23;37.72;101023.81;1749572;81;20928;-70
2021/03/04 09:14:33;;;;;;;14.53;10.45;;;;;;;15.15;37.90;101026.64;1749578;81;21528;-72
2021/03/04 09:17:01;;;;;;;13.28;9.55;;;;;;;15.10;37.97;101025.66;1749650;82;20935;-72
2021/03/04 09:19:37;;;;;;;14.50;9.10;;;;;;;15.10;38.11;101033.09;1749575;82;21206;-75
2021/03/04 09:22:08;;;;;;;10.70;9.25;;;;;;;15.15;38.15;101014.27;1750066;81;21038;-74
2021/03/04 09:24:38;;;;;;;16.87;11.25;;;;;;;15.13;38.13;101014.37;1750548;80;20998;-74
2021/03/04 09:27:08;;;;;;;14.05;10.23;;;;;;;15.19;38.26;101010.94;1750455;82;21713;-75
2021/03/04 09:29:38;;;;;;;15.13;10.98;;;;;;;15.27;38.12;101001.95;1750408;82;21360;-74
2021/03/04 09:32:07;;;;;;;13.55;11.05;;;;;;;15.39;37.96;100994.94;1750406;80;21266;-74
2021/03/04 09:34:40;;;;;;;16.25;12.13;;;;;;;15.53;37.71;100989.45;1749970;80;20951;-73
2021/03/04 09:37:17;;;;;;;22.93;15.53;;;;;;;15.57;37.49;100995.36;1749952;82;20943;-74
2021/03/04 09:39:47;;;;;;;20.68;15.60;;;;;;;15.49;37.80;100988.81;1749535;82;21038;-75
2021/03/04 09:42:18;;;;;;;19.12;13.10;;;;;;;15.46;38.14;100982.45;1749844;82;21010;-76
2021/03/04 09:44:55;;;;;;;21.48;15.55;;;;;;;15.50;38.23;100994.48;1749568;82;21198;-76
2021/03/04 09:47:27;;;;;;;14.98;12.43;;;;;;;15.61;38.03;100987.08;1749937;80;21572;-76
2021/03/04 09:49:56;;;;;;;15.30;13.25;;;;;;;15.76;37.64;100993.02;1749840;82;20998;-74
2021/03/04 09:52:32;;;;;;;15.80;12.95;;;;;;;15.78;37.18;100987.62;1749867;82;20959;-75
2021/03/04 09:55:15;;;;;;;14.15;12.15;;;;;;;15.78;37.42;100988.46;1749885;81;20927;-75
2021/03/04 09:57:45;;;;;;;14.20;11.30;;;;;;;15.90;36.66;100969.52;1750090;82;21256;-74
2021/03/04 10:00:23;;;;;;;16.52;12.07;;;;;;;16.10;36.15;100978.55;1749805;82;21503;-75
2021/03/04 10:02:52;;;;;;;14.80;11.97;;;;;;;16.22;35.77;100972.78;1749773;80;20947;-75
2021/03/04 10:05:24;;;;;;;15.35;13.03;;;;;;;16.33;35.32;100967.00;1749732;82;20931;-74
2021/03/04 10:07:59;;;;;;;16.77;12.68;;;;;;;16.34;35.56;100956.78;1749758;82;21020;-74
2021/03/04 10:10:22;;;;;;;17.73;13.15;;;;;;;16.44;35.45;100956.89;1748794;82;21219;-74
2021/03/04 10:12:57;;;;;;;16.42;12.95;;;;;;;16.54;35.10;100947.27;1749808;80;21357;-75
2021/03/04 10:15:42;;;;;;;17.95;12.60;;;;;;;16.47;35.21;100943.88;1749869;81;21038;-74
2021/03/04 10:18:12;;;;;;;15.08;13.08;;;;;;;16.47;35.22;100942.07;1749871;81;20951;-74
2021/03/04 10:20:45;;;;;;;15.15;12.90;;;;;;;16.46;35.34;100936.92;1749931;82;21409;-73
2021/03/04 10:23:14;;;;;;;16.97;12.88;;;;;;;16.52;35.15;100945.22;1743583;81;21393;-76
2021/03/04 10:25:43;;;;;;;23.27;12.03;;;;;;;16.54;35.02;100929.19;1735717;82;20951;-74
2021/03/04 10:28:11;;;;;;;16.73;13.95;;;;;;;16.52;35.26;100916.58;1735841;81;21362;-75
2021/03/04 10:30:40;;;;;;;22.35;12.85;;;;;;;16.50;35.51;100910.08;1735833;82;20948;-74
2021/03/04 10:33:08;;;;;;;14.93;12.13;;;;;;;16.55;35.60;100898.63;1735742;81;21480;-73
2021/03/04 10:35:36;;;;;;;16.95;14.07;;;;;;;16.46;35.30;100912.61;1735768;82;21266;-74
2021/03/04 10:38:04;;;;;;;15.53;13.10;;;;;;;16.36;36.12;100907.67;1735758;82;20967;-74
2021/03/04 10:40:32;;;;;;;16.15;13.38;;;;;;;16.32;36.42;100896.51;1735799;81;21058;-75
2021/03/04 10:43:01;;;;;;;18.35;13.30;;;;;;;16.31;36.95;100891.33;1735713;82;21516;-73
2021/03/04 10:45:31;;;;;;;19.20;13.50;;;;;;;16.34;36.29;100890.61;1735708;82;20951;-74
2021/03/04 10:47:59;;;;;;;28.30;13.13;;;;;;;16.35;36.55;100882.19;1735806;82;21218;-74
2021/03/04 10:50:29;;;;;;;16.62;13.62;;;;;;;16.41;36.72;100868.47;1735796;82;21369;-74
2021/03/04 10:52:57;;;;;;;15.43;11.45;;;;;;;16.46;36.78;100867.60;1735849;82;21406;-75
2021/03/04 10:55:28;;;;;;;17.87;12.33;;;;;;;16.45;36.69;100872.55;1733825;82;20968;-77
2021/03/04 10:57:55;;;;;;;13.98;10.82;;;;;;;16.34;36.66;100864.15;1735827;82;20995;-74
2021/03/04 11:00:24;;;;;;;17.57;12.78;;;;;;;16.23;37.03;100856.23;1735744;81;21389;-74
2021/03/04 11:02:54;;;;;;;18.98;11.38;;;;;;;16.12;36.97;100865.02;1735752;81;21021;-74
2021/03/04 11:05:23;;;;;;;19.15;11.73;;;;;;;16.04;37.13;100851.55;1735875;82;21485;-76
2021/03/04 11:07:51;;;;;;;14.85;10.98;;;;;;;16.06;37.53;100851.44;1735747;82;20915;-75
2021/03/04 11:10:19;;;;;;;16.25;11.45;;;;;;;16.07;37.42;100849.13;1736560;81;20964;-74
2021/03/04 11:12:48;;;;;;;15.30;11.83;;;;;;;16.13;37.73;100848.66;1736326;81;21794;-73
2021/03/04 11:15:17;;;;;;;18.25;13.08;;;;;;;16.15;37.79;100833.50;1714379;82;21620;-75
2021/03/04 11:17:46;;;;;;;19.00;12.82;;;;;;;16.12;38.08;100825.33;1735664;81;21030;-74
2021/03/04 11:20:14;;;;;;;23.00;13.65;;;;;;;16.09;38.43;100832.17;1735753;82;21019;-75
2021/03/04 11:22:43;;;;;;;16.73;12.50;;;;;;;16.03;38.70;100825.20;1735729;81;20963;-76
2021/03/04 11:25:11;;;;;;;18.12;13.75;;;;;;;16.02;38.90;100819.08;1735710;82;21360;-75
2021/03/04 11:27:39;;;;;;;19.37;15.10;;;;;;;16.08;39.11;100806.70;1735683;82;20956;-75
2021/03/04 11:30:12;;;;;;;21.82;14.68;;;;;;;16.12;39.03;100808.13;1735735;81;20960;-75
2021/03/04 11:32:40;;;;;;;20.17;15.20;;;;;;;15.90;39.56;100813.47;1735729;81;20954;-78